Time;durP1;ratioP1;P1;durP2;ratioP2;P2;SDS_P1;SDS_P2;PMS_P1;PMS_P2;Temp;Humidity;BMP_temperature;BMP_pressure;BME280_temperature;BME280_humidity;BME280_pressure;Samples;Min_cycle;Max_cycle;Signal;HPM_P1;HPM_P2
2023/06/11 00:00:11;;;;;;;;;;;17.80;99.90;;;;;;4957691;28;19914;-72
2023/06/11 00:02:39;;;;;;;;;;;17.90;99.90;;;;;;4957509;28;19917;-72
2023/06/11 00:05:07;;;;;;;;;;;17.90;99.90;;;;;;4941879;28;20014;-72
2023/06/11 00:07:38;;;;;;;;;;;17.90;99.90;;;;;;4962797;28;20016;-72
2023/06/11 00:10:04;;;;;;;;;;;17.90;99.90;;;;;;4956592;28;19961;-72
2023/06/11 00:12:32;;;;;;;;;;;17.90;99.90;;;;;;4963407;28;19919;-72
2023/06/11 00:15:02;;;;;;;;;;;17.90;99.90;;;;;;4955349;28;19910;-73
2023/06/11 00:17:28;;;;;;;;;;;17.90;99.90;;;;;;4962218;28;19918;-72
2023/06/11 00:19:55;;;;;;;;;;;17.80;99.90;;;;;;4958044;28;20392;-72
2023/06/11 00:22:20;;;;;;;;;;;17.90;99.90;;;;;;4963297;28;19910;-72
2023/06/11 00:24:46;;;;;;;;;;;17.90;99.90;;;;;;4965312;28;20281;-72
2023/06/11 00:27:11;;;;;;;;;;;17.80;99.90;;;;;;4957348;28;19914;-72
2023/06/11 00:29:43;;;;;;;;;;;17.80;99.90;;;;;;4963197;28;19914;-72
2023/06/11 00:32:08;;;;;;;;;;;17.60;99.90;;;;;;4956772;28;19917;-72
2023/06/11 00:34:34;;;;;;;;;;;17.50;99.90;;;;;;4958839;28;19914;-71
2023/06/11 00:37:00;;;;;;;;;;;17.40;99.90;;;;;;4959424;28;20060;-72
2023/06/11 00:39:26;;;;;;;;;;;17.30;99.90;;;;;;4961881;28;19918;-72
2023/06/11 00:41:53;;;;;;;;;;;17.30;99.90;;;;;;4962762;28;19933;-72
2023/06/11 00:44:21;;;;;;;;;;;17.30;99.90;;;;;;4940925;28;19965;-72
2023/06/11 00:46:48;;;;;;;;;;;17.30;99.90;;;;;;4948941;28;19977;-72
2023/06/11 00:49:16;;;;;;;;;;;17.40;99.90;;;;;;4958761;28;19989;-72
2023/06/11 00:51:42;;;;;;;;;;;17.30;99.90;;;;;;4962930;28;19910;-72
2023/06/11 00:54:12;;;;;;;;;;;17.20;99.90;;;;;;4957705;28;19920;-72
2023/06/11 00:56:41;;;;;;;;;;;17.00;99.90;;;;;;4959858;28;20268;-72
2023/06/11 00:59:07;;;;;;;;;;;16.90;99.90;;;;;;4943783;28;19925;-72
2023/06/11 01:01:41;;;;;;;;;;;16.90;99.90;;;;;;4958873;28;19910;-72
2023/06/11 01:04:11;;;;;;;;;;;16.90;99.90;;;;;;4962635;28;19920;-72
2023/06/11 01:06:49;;;;;;;;;;;16.90;99.90;;;;;;4956469;28;19981;-72
2023/06/11 01:09:19;;;;;;;;;;;16.90;99.90;;;;;;4955310;28;20334;-72
2023/06/11 01:11:48;;;;;;;;;;;16.90;99.90;;;;;;4949112;28;20346;-71
2023/06/11 01:14:23;;;;;;;;;;;16.90;99.90;;;;;;4961489;28;19928;-72
2023/06/11 01:17:02;;;;;;;;;;;16.80;99.90;;;;;;4949269;28;20351;-72
2023/06/11 01:19:28;;;;;;;;;;;16.80;99.90;;;;;;4966536;28;19915;-73
2023/06/11 01:21:59;;;;;;;;;;;16.80;99.90;;;;;;4961376;28;20008;-72
2023/06/11 01:24:51;;;;;;;;;;;16.70;99.90;;;;;;4962106;28;19918;-72
2023/06/11 01:27:35;;;;;;;;;;;16.70;99.90;;;;;;4955933;28;20378;-72
2023/06/11 01:30:03;;;;;;;;;;;16.50;99.90;;;;;;4966769;28;19921;-72
2023/06/11 01:32:31;;;;;;;;;;;16.50;99.90;;;;;;4962333;28;19921;-72
2023/06/11 01:35:03;;;;;;;;;;;16.50;99.90;;;;;;4964048;28;19918;-72
2023/06/11 01:37:32;;;;;;;;;;;16.50;99.90;;;;;;4961056;28;19914;-72
2023/06/11 01:39:58;;;;;;;;;;;16.40;99.90;;;;;;4961925;28;19918;-72
2023/06/11 01:42:23;;;;;;;;;;;16.40;99.90;;;;;;4961736;28;19918;-72
2023/06/11 01:44:49;;;;;;;;;;;16.40;99.90;;;;;;4965729;28;19913;-72
2023/06/11 01:47:15;;;;;;;;;;;16.40;99.90;;;;;;4962283;28;19914;-72
2023/06/11 01:49:41;;;;;;;;;;;16.40;99.90;;;;;;4966027;28;19921;-72
2023/06/11 01:52:07;;;;;;;;;;;16.30;99.90;;;;;;4960560;28;20283;-72
2023/06/11 01:54:33;;;;;;;;;;;16.30;99.90;;;;;;4961383;28;19973;-72
2023/06/11 01:57:00;;;;;;;;;;;16.30;99.90;;;;;;4961095;28;19968;-72
2023/06/11 01:59:25;;;;;;;;;;;16.30;99.90;;;;;;4966254;28;19921;-72
2023/06/11 02:01:55;;;;;;;;;;;16.30;99.90;;;;;;4965791;28;19914;-72
2023/06/11 02:04:27;;;;;;;;;;;16.30;99.90;;;;;;4958975;28;19933;-72
2023/06/11 02:06:53;;;;;;;;;;;16.40;99.90;;;;;;4965622;28;19972;-71
2023/06/11 02:09:24;;;;;;;;;;;16.40;99.90;;;;;;4963844;28;20214;-75
2023/06/11 02:11:50;;;;;;;;;;;16.50;99.90;;;;;;4964633;28;19910;-75
2023/06/11 02:14:18;;;;;;;;;;;16.40;99.90;;;;;;4961357;28;19921;-74
2023/06/11 02:16:54;;;;;;;;;;;16.40;99.90;;;;;;4966095;28;19917;-74
2023/06/11 02:19:26;;;;;;;;;;;16.30;99.90;;;;;;4966059;28;19910;-75
2023/06/11 02:21:53;;;;;;;;;;;16.30;99.90;;;;;;4959460;28;19925;-74
2023/06/11 02:24:21;;;;;;;;;;;16.30;99.90;;;;;;4965470;28;19930;-74
2023/06/11 02:26:52;;;;;;;;;;;16.20;99.90;;;;;;4961624;28;19921;-75
2023/06/11 02:29:25;;;;;;;;;;;16.10;99.90;;;;;;4961814;28;19910;-75
2023/06/11 02:31:53;;;;;;;;;;;16.10;99.90;;;;;;4948621;28;19914;-75
2023/06/11 02:34:22;;;;;;;;;;;16.10;99.90;;;;;;4940278;28;19968;-75
2023/06/11 02:36:48;;;;;;;;;;;16.10;99.90;;;;;;4966075;28;19978;-74
2023/06/11 02:39:14;;;;;;;;;;;16.00;99.90;;;;;;4965936;28;20116;-75
2023/06/11 02:41:48;;;;;;;;;;;16.00;99.90;;;;;;4964693;28;19917;-75
2023/06/11 02:44:14;;;;;;;;;;;16.00;99.90;;;;;;4958840;28;19965;-75
2023/06/11 02:46:42;;;;;;;;;;;15.90;99.90;;;;;;4958986;28;19911;-74
2023/06/11 02:49:14;;;;;;;;;;;15.90;99.90;;;;;;4958348;28;19957;-75
2023/06/11 02:51:40;;;;;;;;;;;15.90;99.90;;;;;;4959193;28;19914;-75
2023/06/11 02:54:06;;;;;;;;;;;15.90;99.90;;;;;;4959541;28;19956;-75
2023/06/11 02:56:32;;;;;;;;;;;15.80;99.90;;;;;;4964332;28;20337;-74
2023/06/11 02:59:00;;;;;;;;;;;15.80;99.90;;;;;;4961367;28;19914;-74
2023/06/11 03:01:41;;;;;;;;;;;15.80;99.90;;;;;;4960492;28;19910;-75
2023/06/11 03:04:16;;;;;;;;;;;15.80;99.90;;;;;;4960438;28;19910;-74
2023/06/11 03:06:50;;;;;;;;;;;15.80;99.90;;;;;;4960710;28;20453;-75
2023/06/11 03:09:18;;;;;;;;;;;15.70;99.90;;;;;;4959587;28;19924;-74
2023/06/11 03:11:58;;;;;;;;;;;15.80;99.90;;;;;;4965266;28;19910;-74
2023/06/11 03:14:26;;;;;;;;;;;15.80;99.90;;;;;;4960340;28;19922;-75
2023/06/11 03:16:51;;;;;;;;;;;15.80;99.90;;;;;;4963990;28;19920;-74
2023/06/11 03:19:17;;;;;;;;;;;15.80;99.90;;;;;;4965077;28;19910;-75
2023/06/11 03:21:48;;;;;;;;;;;15.80;99.90;;;;;;4969419;28;20439;-74
2023/06/11 03:24:14;;;;;;;;;;;15.80;99.90;;;;;;4968604;28;19910;-75
2023/06/11 03:26:47;;;;;;;;;;;15.80;99.90;;;;;;4947451;28;20486;-75
2023/06/11 03:29:19;;;;;;;;;;;15.80;99.90;;;;;;4958886;28;19933;-74
2023/06/11 03:31:47;;;;;;;;;;;15.80;99.90;;;;;;4964253;28;19914;-75
2023/06/11 03:34:17;;;;;;;;;;;15.70;99.90;;;;;;4960243;28;19965;-74
2023/06/11 03:36:48;;;;;;;;;;;15.70;99.90;;;;;;4960306;28;19933;-75
2023/06/11 03:39:17;;;;;;;;;;;15.70;99.90;;;;;;4960782;28;19946;-75
2023/06/11 03:41:43;;;;;;;;;;;15.80;99.90;;;;;;4959266;28;20001;-74
2023/06/11 03:44:10;;;;;;;;;;;15.90;99.90;;;;;;4958676;28;20052;-74
2023/06/11 03:46:41;;;;;;;;;;;16.00;99.90;;;;;;4963717;28;20040;-75
2023/06/11 03:49:13;;;;;;;;;;;16.00;99.90;;;;;;4957745;28;19929;-75
2023/06/11 03:51:44;;;;;;;;;;;16.10;99.90;;;;;;4958185;28;19914;-74
2023/06/11 03:54:12;;;;;;;;;;;16.20;99.90;;;;;;4957443;28;19917;-75
2023/06/11 03:56:37;;;;;;;;;;;16.30;99.90;;;;;;4960700;28;19910;-74
2023/06/11 03:59:05;;;;;;;;;;;16.30;99.90;;;;;;4959939;28;20283;-74
2023/06/11 04:01:36;;;;;;;;;;;16.30;99.90;;;;;;4959560;28;19918;-74
2023/06/11 04:04:04;;;;;;;;;;;16.30;99.90;;;;;;4959666;28;20058;-74
2023/06/11 04:06:40;;;;;;;;;;;16.40;99.90;;;;;;4947200;28;19937;-75
2023/06/11 04:09:10;;;;;;;;;;;16.60;99.90;;;;;;4964444;28;19910;-74
2023/06/11 04:11:36;;;;;;;;;;;16.70;99.90;;;;;;4957378;28;19934;-75
2023/06/11 04:14:05;;;;;;;;;;;16.80;99.90;;;;;;4959905;28;19932;-75
2023/06/11 04:16:36;;;;;;;;;;;16.90;99.90;;;;;;4964264;28;20002;-74
2023/06/11 04:19:01;;;;;;;;;;;17.00;99.90;;;;;;4963843;28;19910;-75
2023/06/11 04:21:33;;;;;;;;;;;17.00;99.90;;;;;;4959214;28;19985;-75
2023/06/11 04:24:02;;;;;;;;;;;17.10;99.90;;;;;;4959270;28;19910;-75
2023/06/11 04:26:28;;;;;;;;;;;17.20;99.90;;;;;;4942724;28;20429;-74
2023/06/11 04:28:56;;;;;;;;;;;17.20;99.90;;;;;;4942485;28;20620;-75
2023/06/11 04:31:29;;;;;;;;;;;17.30;99.90;;;;;;4959768;28;20778;-75
2023/06/11 04:34:02;;;;;;;;;;;17.30;99.90;;;;;;4959146;28;19910;-74
2023/06/11 04:36:29;;;;;;;;;;;17.40;99.90;;;;;;4964162;28;19914;-74
2023/06/11 04:38:56;;;;;;;;;;;17.50;99.90;;;;;;4960129;28;19910;-74
2023/06/11 04:41:26;;;;;;;;;;;17.60;99.90;;;;;;4960055;28;21385;-74
2023/06/11 04:43:52;;;;;;;;;;;17.70;99.90;;;;;;4961070;28;19911;-75
2023/06/11 04:46:18;;;;;;;;;;;17.80;99.90;;;;;;4960990;28;19915;-74
2023/06/11 04:48:44;;;;;;;;;;;17.90;99.90;;;;;;4959706;28;19911;-75
2023/06/11 04:51:11;;;;;;;;;;;18.00;99.90;;;;;;4958319;28;19960;-74
2023/06/11 04:53:39;;;;;;;;;;;18.10;99.90;;;;;;4956502;28;19919;-74
2023/06/11 04:56:29;;;;;;;;;;;18.30;99.90;;;;;;4963526;28;19921;-74
2023/06/11 04:58:55;;;;;;;;;;;18.30;99.90;;;;;;4959398;28;20395;-75
2023/06/11 05:01:20;;;;;;;;;;;18.50;99.90;;;;;;4963479;28;19914;-74
2023/06/11 05:03:50;;;;;;;;;;;18.60;99.90;;;;;;4958736;28;19984;-74
2023/06/11 05:06:21;;;;;;;;;;;18.60;99.90;;;;;;4957825;28;19918;-74
2023/06/11 05:08:52;;;;;;;;;;;18.50;99.90;;;;;;4958420;28;19914;-74
2023/06/11 05:11:18;;;;;;;;;;;18.60;99.90;;;;;;4958472;28;19918;-74
2023/06/11 05:13:47;;;;;;;;;;;18.70;99.90;;;;;;4961064;28;19914;-75
2023/06/11 05:16:14;;;;;;;;;;;18.80;99.90;;;;;;4961901;28;19914;-75
2023/06/11 05:18:39;;;;;;;;;;;18.90;99.90;;;;;;4959175;28;19921;-75
2023/06/11 05:21:06;;;;;;;;;;;19.00;99.90;;;;;;4955401;28;19910;-73
2023/06/11 05:23:33;;;;;;;;;;;19.10;99.90;;;;;;4942013;28;19917;-74
2023/06/11 05:26:08;;;;;;;;;;;19.30;99.90;;;;;;4959131;28;19993;-74
2023/06/11 05:28:39;;;;;;;;;;;19.40;99.90;;;;;;4941944;28;19913;-74
2023/06/11 05:31:19;;;;;;;;;;;19.70;99.90;;;;;;4939334;28;19915;-74
2023/06/11 05:33:45;;;;;;;;;;;19.80;99.90;;;;;;4955887;28;20990;-74
2023/06/11 05:36:16;;;;;;;;;;;20.10;99.90;;;;;;4941595;28;19917;-74
2023/06/11 05:38:42;;;;;;;;;;;20.30;99.90;;;;;;4957619;28;20439;-74
2023/06/11 05:41:09;;;;;;;;;;;20.50;99.90;;;;;;4958938;28;19920;-74
2023/06/11 05:43:36;;;;;;;;;;;20.70;99.90;;;;;;4962864;28;19910;-75
2023/06/11 05:46:09;;;;;;;;;;;20.80;99.90;;;;;;4957048;28;20000;-74
2023/06/11 05:48:35;;;;;;;;;;;20.80;99.90;;;;;;4958774;28;19922;-75
2023/06/11 05:51:11;;;;;;;;;;;20.50;99.90;;;;;;4958895;28;19922;-74
2023/06/11 05:54:01;;;;;;;;;;;20.30;99.90;;;;;;4956421;28;20401;-75
2023/06/11 05:56:30;;;;;;;;;;;20.10;99.90;;;;;;4959172;28;19950;-75
2023/06/11 05:59:00;;;;;;;;;;;19.80;99.90;;;;;;4946244;28;19910;-75
2023/06/11 06:01:28;;;;;;;;;;;19.80;99.90;;;;;;4962218;28;19985;-74
2023/06/11 06:03:59;;;;;;;;;;;19.70;99.90;;;;;;4961066;28;19918;-75
2023/06/11 06:06:25;;;;;;;;;;;19.50;99.90;;;;;;4949833;28;19929;-74
2023/06/11 06:08:55;;;;;;;;;;;19.50;99.90;;;;;;4961005;28;19917;-74
2023/06/11 06:11:24;;;;;;;;;;;19.50;99.90;;;;;;4957752;28;19918;-75
2023/06/11 06:13:53;;;;;;;;;;;19.60;99.90;;;;;;4960639;28;19917;-74
2023/06/11 06:16:19;;;;;;;;;;;19.60;99.90;;;;;;4960556;28;19990;-74
2023/06/11 06:18:46;;;;;;;;;;;19.90;99.90;;;;;;4962567;28;21173;-75
2023/06/11 06:21:11;;;;;;;;;;;19.90;99.90;;;;;;4966232;28;19917;-74
2023/06/11 06:23:43;;;;;;;;;;;20.00;99.90;;;;;;4940489;28;19922;-75
2023/06/11 06:26:18;;;;;;;;;;;20.00;99.90;;;;;;4960823;28;20012;-74
2023/06/11 06:28:44;;;;;;;;;;;20.10;99.90;;;;;;4959443;28;19910;-74
2023/06/11 06:31:12;;;;;;;;;;;20.20;99.90;;;;;;4961345;28;20418;-75
2023/06/11 06:33:41;;;;;;;;;;;20.30;99.90;;;;;;4960490;28;19926;-75
2023/06/11 06:36:09;;;;;;;;;;;20.20;99.90;;;;;;4965883;28;19917;-75
2023/06/11 06:38:40;;;;;;;;;;;20.10;99.90;;;;;;4961967;28;19916;-75
2023/06/11 06:41:11;;;;;;;;;;;20.20;99.90;;;;;;4960696;28;20364;-75
2023/06/11 06:43:38;;;;;;;;;;;20.20;99.90;;;;;;4941354;28;20315;-74
2023/06/11 06:46:09;;;;;;;;;;;20.40;99.90;;;;;;4944126;28;19945;-74
2023/06/11 06:48:36;;;;;;;;;;;20.50;99.90;;;;;;4965774;28;20005;-74
2023/06/11 06:51:02;;;;;;;;;;;20.90;99.90;;;;;;4960144;28;19918;-74
2023/06/11 06:53:28;;;;;;;;;;;21.00;99.90;;;;;;4955490;28;19917;-75
2023/06/11 06:55:54;;;;;;;;;;;21.00;99.90;;;;;;4959382;28;19919;-75
2023/06/11 06:58:19;;;;;;;;;;;21.00;99.90;;;;;;4956179;28;20355;-75
2023/06/11 07:00:46;;;;;;;;;;;21.00;99.90;;;;;;4940655;28;19968;-74
2023/06/11 07:03:15;;;;;;;;;;;20.80;99.90;;;;;;4957270;28;19968;-74
2023/06/11 07:05:41;;;;;;;;;;;20.60;99.90;;;;;;4956711;28;19914;-74
2023/06/11 07:08:13;;;;;;;;;;;20.20;99.90;;;;;;4958413;28;20374;-74
2023/06/11 07:10:47;;;;;;;;;;;19.80;99.90;;;;;;4963239;28;19921;-75
2023/06/11 07:13:15;;;;;;;;;;;19.80;99.90;;;;;;4957000;28;19910;-74
2023/06/11 07:15:41;;;;;;;;;;;19.60;99.90;;;;;;4959151;28;19997;-74
2023/06/11 07:18:08;;;;;;;;;;;19.60;99.90;;;;;;4960114;28;19910;-75
2023/06/11 07:20:37;;;;;;;;;;;19.70;99.90;;;;;;4966988;28;20000;-74
2023/06/11 07:23:02;;;;;;;;;;;19.60;99.90;;;;;;4965422;28;20528;-75
2023/06/11 07:25:33;;;;;;;;;;;19.60;99.90;;;;;;4964594;28;19910;-78
2023/06/11 07:28:01;;;;;;;;;;;19.70;99.90;;;;;;4951943;28;20372;-78
2023/06/11 07:30:32;;;;;;;;;;;19.80;99.90;;;;;;4945341;28;19922;-80
2023/06/11 07:33:02;;;;;;;;;;;20.00;99.90;;;;;;4977688;28;19921;-80
2023/06/11 07:35:30;;;;;;;;;;;20.20;99.90;;;;;;4960717;28;19922;-80
2023/06/11 07:37:56;;;;;;;;;;;20.40;99.90;;;;;;4963828;28;19910;-80
2023/06/11 07:40:24;;;;;;;;;;;20.40;99.90;;;;;;4978100;28;19968;-80
2023/06/11 07:42:50;;;;;;;;;;;20.30;99.90;;;;;;4975267;28;19911;-80
2023/06/11 07:45:16;;;;;;;;;;;20.40;99.90;;;;;;4973903;28;19910;-80
2023/06/11 07:47:47;;;;;;;;;;;20.10;99.90;;;;;;4973234;28;19945;-80
2023/06/11 07:50:13;;;;;;;;;;;20.30;99.90;;;;;;4956765;28;19918;-80
2023/06/11 07:52:43;;;;;;;;;;;20.40;99.90;;;;;;4975535;28;20315;-80
2023/06/11 07:55:12;;;;;;;;;;;20.50;99.90;;;;;;4956374;28;20322;-80
2023/06/11 07:57:48;;;;;;;;;;;20.50;99.90;;;;;;4969850;28;19998;-80
2023/06/11 08:00:17;;;;;;;;;;;20.70;99.90;;;;;;4953963;28;19918;-80
2023/06/11 08:02:43;;;;;;;;;;;20.90;99.90;;;;;;4972712;28;19910;-80
2023/06/11 08:08:10;;;;;;;;;;;21.20;99.90;;;;;;5203582;23;19965;-79
2023/06/11 08:10:37;;;;;;;;;;;21.50;99.90;;;;;;4969250;28;19914;-76
2023/06/11 08:13:21;;;;;;;;;;;20.80;99.90;;;;;;4966117;28;19914;-81
2023/06/11 08:15:51;;;;;;;;;;;20.90;99.90;;;;;;4970531;28;19989;-80
2023/06/11 08:18:38;;;;;;;;;;;20.80;99.90;;;;;;4970924;28;19941;-81
2023/06/11 08:21:09;;;;;;;;;;;20.80;99.90;;;;;;4970165;28;19930;-80
2023/06/11 08:23:35;;;;;;;;;;;20.80;99.90;;;;;;4987338;28;19988;-81
2023/06/11 08:26:01;;;;;;;;;;;20.80;99.90;;;;;;4964342;28;19909;-79
2023/06/11 08:28:33;;;;;;;;;;;20.80;99.90;;;;;;4991790;28;19898;-81
2023/06/11 08:31:12;;;;;;;;;;;20.80;99.90;;;;;;4971396;28;20025;-81
2023/06/11 08:33:48;;;;;;;;;;;20.80;99.90;;;;;;4974898;28;20017;-80
2023/06/11 08:36:16;;;;;;;;;;;20.90;99.90;;;;;;4955420;28;19915;-78
2023/06/11 08:38:41;;;;;;;;;;;21.00;99.90;;;;;;4925163;28;19910;-78
2023/06/11 08:41:11;;;;;;;;;;;21.00;99.90;;;;;;4943019;28;19917;-78
2023/06/11 08:43:39;;;;;;;;;;;21.10;99.90;;;;;;4942389;28;20438;-78
2023/06/11 08:46:14;;;;;;;;;;;21.10;99.90;;;;;;4941817;28;19914;-77
2023/06/11 08:48:42;;;;;;;;;;;21.20;99.90;;;;;;4938558;28;19911;-78
2023/06/11 08:51:12;;;;;;;;;;;21.30;99.90;;;;;;4943300;28;20013;-75
2023/06/11 08:53:38;;;;;;;;;;;21.50;99.90;;;;;;4924357;28;19946;-76
2023/06/11 08:56:06;;;;;;;;;;;21.60;99.90;;;;;;4941200;28;19981;-77
2023/06/11 08:58:33;;;;;;;;;;;21.70;99.90;;;;;;4941234;28;19911;-78
2023/06/11 09:01:01;;;;;;;;;;;21.60;99.90;;;;;;4937097;28;19911;-77
2023/06/11 09:03:26;;;;;;;;;;;21.50;99.90;;;;;;4947745;28;19914;-78
2023/06/11 09:05:58;;;;;;;;;;;21.40;99.90;;;;;;4943360;28;19930;-78
2023/06/11 09:08:27;;;;;;;;;;;21.30;99.90;;;;;;4947518;28;20005;-78
2023/06/11 09:11:00;;;;;;;;;;;21.20;99.90;;;;;;4941612;28;19918;-77
2023/06/11 09:13:27;;;;;;;;;;;21.20;99.90;;;;;;4945021;28;19961;-77
2023/06/11 09:16:06;;;;;;;;;;;21.30;99.90;;;;;;4939591;28;19919;-77
2023/06/11 09:18:42;;;;;;;;;;;21.40;99.90;;;;;;4942115;28;20091;-79
2023/06/11 09:21:17;;;;;;;;;;;21.40;99.90;;;;;;4944760;28;19918;-79
2023/06/11 09:23:47;;;;;;;;;;;21.50;99.90;;;;;;4949140;28;19915;-80
2023/06/11 09:26:18;;;;;;;;;;;21.30;99.90;;;;;;4958720;28;19910;-80
2023/06/11 09:28:46;;;;;;;;;;;21.30;99.90;;;;;;4934298;28;19911;-78
2023/06/11 09:31:17;;;;;;;;;;;21.50;99.90;;;;;;4951148;28;19915;-77
2023/06/11 09:33:52;;;;;;;;;;;21.60;99.90;;;;;;4947747;28;19914;-77
2023/06/11 09:36:18;;;;;;;;;;;21.50;99.90;;;;;;4942059;28;19918;-77
2023/06/11 09:38:48;;;;;;;;;;;21.30;99.90;;;;;;4947773;28;19922;-77
2023/06/11 09:41:22;;;;;;;;;;;21.20;99.90;;;;;;4951071;28;19925;-78
2023/06/11 09:43:53;;;;;;;;;;;21.20;99.90;;;;;;4943569;28;19926;-78
2023/06/11 09:46:23;;;;;;;;;;;21.30;99.90;;;;;;4944731;28;19911;-79
2023/06/11 09:48:49;;;;;;;;;;;21.40;99.90;;;;;;4948840;28;19915;-79
2023/06/11 09:51:24;;;;;;;;;;;21.50;99.90;;;;;;4934736;28;20049;-78
2023/06/11 09:53:58;;;;;;;;;;;21.70;99.90;;;;;;4927357;28;19917;-77
2023/06/11 09:56:27;;;;;;;;;;;21.60;99.90;;;;;;4946964;28;19918;-78
2023/06/11 09:58:56;;;;;;;;;;;21.60;99.90;;;;;;4952271;28;19958;-79
2023/06/11 10:01:47;;;;;;;;;;;21.60;99.90;;;;;;4959972;28;19911;-80
2023/06/11 10:04:16;;;;;;;;;;;21.60;99.90;;;;;;4942894;28;19918;-79
2023/06/11 10:06:47;;;;;;;;;;;21.60;99.90;;;;;;4950735;28;19921;-78
2023/06/11 10:09:19;;;;;;;;;;;21.70;99.90;;;;;;4948285;28;19914;-77
2023/06/11 10:11:45;;;;;;;;;;;21.60;99.90;;;;;;4951841;28;19918;-78
2023/06/11 10:14:22;;;;;;;;;;;21.70;99.90;;;;;;4934078;28;19965;-75
2023/06/11 10:16:51;;;;;;;;;;;21.80;99.90;;;;;;4944844;28;20014;-78
2023/06/11 10:19:21;;;;;;;;;;;21.90;99.90;;;;;;4928268;28;19910;-76
2023/06/11 10:21:51;;;;;;;;;;;21.90;99.90;;;;;;4944780;28;20260;-78
2023/06/11 10:24:24;;;;;;;;;;;21.90;99.90;;;;;;4942123;28;20106;-77
2023/06/11 10:27:02;;;;;;;;;;;22.00;99.90;;;;;;4943791;28;20001;-79
2023/06/11 10:29:31;;;;;;;;;;;21.90;99.90;;;;;;4941631;28;19958;-76
2023/06/11 10:32:02;;;;;;;;;;;21.90;99.90;;;;;;4943173;28;19923;-75
2023/06/11 10:34:40;;;;;;;;;;;22.10;99.90;;;;;;4941719;28;19918;-73
2023/06/11 10:37:06;;;;;;;;;;;22.20;99.90;;;;;;4944514;28;19917;-75
2023/06/11 10:39:33;;;;;;;;;;;22.30;99.90;;;;;;4942628;28;19918;-75
2023/06/11 10:42:00;;;;;;;;;;;22.60;99.90;;;;;;4947026;28;19923;-78
2023/06/11 10:44:29;;;;;;;;;;;22.60;99.90;;;;;;4942436;28;19910;-73
2023/06/11 10:46:59;;;;;;;;;;;22.50;99.90;;;;;;4944319;28;19911;-71
2023/06/11 10:49:25;;;;;;;;;;;22.50;99.90;;;;;;4939781;28;20321;-71
2023/06/11 10:51:51;;;;;;;;;;;22.60;99.90;;;;;;4938847;28;19924;-71
2023/06/11 10:54:25;;;;;;;;;;;22.60;99.90;;;;;;4940459;28;19915;-76
2023/06/11 10:56:52;;;;;;;;;;;22.70;99.90;;;;;;4925472;28;19918;-75
2023/06/11 10:59:20;;;;;;;;;;;22.50;99.90;;;;;;4925619;28;19911;-76
2023/06/11 11:01:46;;;;;;;;;;;22.30;99.90;;;;;;4927310;28;19910;-76
2023/06/11 11:04:11;;;;;;;;;;;22.10;99.90;;;;;;4945673;28;20360;-75
2023/06/11 11:06:39;;;;;;;;;;;21.90;99.90;;;;;;4943803;28;19923;-75
2023/06/11 11:09:06;;;;;;;;;;;21.80;99.90;;;;;;4941140;28;20380;-76
2023/06/11 11:11:32;;;;;;;;;;;21.80;99.90;;;;;;4947331;28;19998;-75
2023/06/11 11:13:58;;;;;;;;;;;21.90;99.90;;;;;;4945798;28;19922;-75
2023/06/11 11:16:31;;;;;;;;;;;22.20;99.90;;;;;;4942130;28;19919;-75
2023/06/11 11:19:01;;;;;;;;;;;22.30;99.90;;;;;;4941962;28;20030;-78
2023/06/11 11:21:29;;;;;;;;;;;22.70;99.90;;;;;;4942695;28;19921;-75
2023/06/11 11:24:01;;;;;;;;;;;23.00;99.90;;;;;;4928859;28;19922;-75
2023/06/11 11:26:40;;;;;;;;;;;23.30;99.90;;;;;;4941685;28;19918;-75
2023/06/11 11:29:07;;;;;;;;;;;23.60;99.90;;;;;;4940298;28;19911;-75
2023/06/11 11:31:37;;;;;;;;;;;23.90;99.90;;;;;;4943396;28;19919;-76
2023/06/11 11:34:03;;;;;;;;;;;24.00;99.90;;;;;;4937377;28;19934;-79
2023/06/11 11:36:31;;;;;;;;;;;23.80;99.90;;;;;;4946815;28;19911;-75
2023/06/11 11:38:57;;;;;;;;;;;23.60;99.90;;;;;;4943345;28;19973;-75
2023/06/11 11:41:24;;;;;;;;;;;23.60;99.90;;;;;;4940877;28;19915;-78
2023/06/11 11:43:51;;;;;;;;;;;23.70;99.90;;;;;;4940454;28;19910;-77
2023/06/11 11:46:17;;;;;;;;;;;23.70;99.90;;;;;;4944830;28;20745;-78
2023/06/11 11:48:55;;;;;;;;;;;23.80;99.90;;;;;;4930204;28;20336;-78
2023/06/11 11:51:24;;;;;;;;;;;23.70;99.90;;;;;;4950346;28;20287;-77
2023/06/11 11:53:53;;;;;;;;;;;23.60;99.90;;;;;;4946975;28;20028;-74
2023/06/11 11:56:19;;;;;;;;;;;23.60;99.90;;;;;;4942892;28;20511;-72
2023/06/11 11:58:47;;;;;;;;;;;23.60;99.90;;;;;;4943252;28;19936;-75
2023/06/11 12:01:21;;;;;;;;;;;23.60;99.90;;;;;;4927852;28;19921;-73
2023/06/11 12:03:59;;;;;;;;;;;23.50;99.90;;;;;;4923707;28;19918;-75
2023/06/11 12:06:25;;;;;;;;;;;23.50;99.90;;;;;;4943661;28;19921;-75
2023/06/11 12:08:53;;;;;;;;;;;23.50;99.90;;;;;;4946802;28;19922;-75
2023/06/11 12:11:26;;;;;;;;;;;23.50;99.90;;;;;;4942744;28;19998;-77
2023/06/11 12:13:55;;;;;;;;;;;23.50;99.90;;;;;;4924592;28;20017;-77
2023/06/11 12:16:23;;;;;;;;;;;23.30;99.90;;;;;;4940442;28;20457;-77
2023/06/11 12:18:51;;;;;;;;;;;23.20;99.90;;;;;;4940696;28;19911;-76
2023/06/11 12:21:21;;;;;;;;;;;23.10;99.90;;;;;;4940455;28;19914;-76
2023/06/11 12:23:47;;;;;;;;;;;22.90;99.90;;;;;;4938469;28;19918;-76
2023/06/11 12:26:13;;;;;;;;;;;22.60;99.90;;;;;;4939306;28;19962;-75
2023/06/11 12:28:49;;;;;;;;;;;22.10;99.90;;;;;;4943237;28;19947;-76
2023/06/11 12:31:16;;;;;;;;;;;22.00;99.90;;;;;;4936519;28;19922;-66
2023/06/11 12:33:41;;;;;;;;;;;21.80;99.90;;;;;;4938865;28;19911;-66
2023/06/11 12:36:07;;;;;;;;;;;21.70;99.90;;;;;;4937357;28;19914;-66
2023/06/11 12:38:32;;;;;;;;;;;21.60;99.90;;;;;;4938636;28;20500;-68
2023/06/11 12:40:58;;;;;;;;;;;21.50;99.90;;;;;;4937682;28;20602;-67
2023/06/11 12:43:23;;;;;;;;;;;21.50;99.90;;;;;;4940610;28;19930;-64
2023/06/11 12:45:49;;;;;;;;;;;21.50;99.90;;;;;;4940509;28;19914;-64
2023/06/11 12:48:14;;;;;;;;;;;21.70;99.90;;;;;;4936725;28;19910;-64
2023/06/11 12:50:40;;;;;;;;;;;22.00;99.90;;;;;;4939131;28;20254;-64
2023/06/11 12:53:06;;;;;;;;;;;22.20;99.90;;;;;;4932342;28;19969;-64
2023/06/11 12:55:31;;;;;;;;;;;22.50;99.90;;;;;;4936950;28;20023;-64
2023/06/11 12:57:57;;;;;;;;;;;22.90;99.90;;;;;;4921953;28;20335;-64
2023/06/11 13:00:24;;;;;;;;;;;23.40;99.90;;;;;;4938444;28;20467;-64
2023/06/11 13:02:50;;;;;;;;;;;23.70;99.90;;;;;;4935408;28;19914;-64
2023/06/11 13:05:16;;;;;;;;;;;24.10;99.90;;;;;;4937944;28;19911;-64
2023/06/11 13:07:41;;;;;;;;;;;24.30;99.90;;;;;;4940388;28;19923;-63
2023/06/11 13:10:07;;;;;;;;;;;24.50;99.90;;;;;;4946660;28;20022;-63
2023/06/11 13:12:34;;;;;;;;;;;24.50;99.90;;;;;;4941022;28;19915;-63
2023/06/11 13:14:59;;;;;;;;;;;24.50;99.90;;;;;;4940796;28;21502;-64
2023/06/11 13:17:25;;;;;;;;;;;24.70;99.90;;;;;;4941337;28;19926;-64
2023/06/11 13:19:54;;;;;;;;;;;24.80;99.90;;;;;;4941096;28;19981;-63
2023/06/11 13:22:19;;;;;;;;;;;24.90;99.90;;;;;;4939990;28;19914;-63
2023/06/11 13:24:45;;;;;;;;;;;24.90;99.90;;;;;;4937883;28;20335;-64
2023/06/11 13:27:10;;;;;;;;;;;25.10;99.90;;;;;;4940953;28;20466;-64
2023/06/11 13:29:36;;;;;;;;;;;25.20;99.90;;;;;;4943924;28;20037;-64
2023/06/11 13:32:02;;;;;;;;;;;25.20;99.90;;;;;;4940549;28;20336;-64
2023/06/11 13:34:27;;;;;;;;;;;25.30;99.90;;;;;;4924072;28;19915;-64
2023/06/11 13:36:56;;;;;;;;;;;25.40;99.90;;;;;;4939790;28;19919;-64
2023/06/11 13:39:24;;;;;;;;;;;25.10;99.90;;;;;;4938899;28;20025;-64
2023/06/11 13:41:50;;;;;;;;;;;25.00;99.90;;;;;;4943956;28;19965;-64
2023/06/11 13:44:16;;;;;;;;;;;25.10;99.90;;;;;;4936868;28;19957;-64
2023/06/11 13:46:41;;;;;;;;;;;25.10;99.90;;;;;;4940416;28;20324;-64
2023/06/11 13:49:07;;;;;;;;;;;25.00;99.90;;;;;;4940225;28;19958;-64
2023/06/11 13:51:33;;;;;;;;;;;24.90;99.90;;;;;;4939642;28;19918;-64
2023/06/11 13:53:59;;;;;;;;;;;24.90;99.90;;;;;;4941696;28;19914;-64
2023/06/11 13:56:25;;;;;;;;;;;24.90;99.90;;;;;;4943642;28;19982;-64
2023/06/11 13:58:51;;;;;;;;;;;24.60;99.90;;;;;;4921240;28;20447;-64
2023/06/11 14:01:16;;;;;;;;;;;24.70;99.90;;;;;;4940852;28;20029;-63
2023/06/11 14:03:42;;;;;;;;;;;24.50;99.90;;;;;;4920449;28;20583;-65
2023/06/11 14:06:07;;;;;;;;;;;24.40;99.90;;;;;;4940087;28;19911;-64
2023/06/11 14:08:52;;;;;;;;;;;24.20;99.90;;;;;;4950901;28;20480;-79
2023/06/11 14:11:21;;;;;;;;;;;24.00;99.90;;;;;;4944000;28;20003;-79
2023/06/11 14:13:50;;;;;;;;;;;23.90;99.90;;;;;;4943752;28;19914;-78
2023/06/11 14:16:16;;;;;;;;;;;23.70;99.90;;;;;;4943129;28;20009;-79
2023/06/11 14:18:42;;;;;;;;;;;23.60;99.90;;;;;;4948599;28;20377;-80
2023/06/11 14:21:08;;;;;;;;;;;23.50;99.90;;;;;;4948341;28;19918;-80
2023/06/11 14:23:37;;;;;;;;;;;23.50;99.90;;;;;;4953603;28;19910;-79
2023/06/11 14:26:04;;;;;;;;;;;23.40;99.90;;;;;;4950349;28;20012;-80
2023/06/11 14:28:31;;;;;;;;;;;23.40;99.90;;;;;;4948397;28;20500;-79